RJTH(METAR)
07/15 17:00
RJTH 150800Z 23007KT 9999 FEW015 SCT025 29/25 Q1012 RMK A2991=
戻る
トップページへ戻る
IMOC Co,.Ltd.